createdAt,value
2016-12-07T00:01:09.846Z,1033.1
2016-12-07T00:06:13.924Z,1033
2016-12-07T00:11:18.010Z,1033
2016-12-07T00:16:22.427Z,1033
2016-12-07T00:21:26.851Z,1033
2016-12-07T00:26:30.945Z,1032.9
2016-12-07T00:31:35.380Z,1032.9
2016-12-07T00:36:39.472Z,1033
2016-12-07T00:41:43.892Z,1033.1
2016-12-07T00:46:47.977Z,1033.2
2016-12-07T00:51:52.057Z,1033
2016-12-07T00:56:56.811Z,1033
2016-12-07T01:02:00.899Z,1033
2016-12-07T01:07:05.324Z,1033.1
2016-12-07T01:12:09.412Z,1033.1
2016-12-07T01:17:13.502Z,1033.1
2016-12-07T01:22:17.595Z,1033.1
2016-12-07T01:27:21.687Z,1033.1
2016-12-07T01:32:26.118Z,1033.2
2016-12-07T01:37:30.538Z,1033.2
2016-12-07T01:42:35.299Z,1033.1
2016-12-07T01:47:39.729Z,1033.2
2016-12-07T01:52:43.818Z,1033.1
2016-12-07T01:57:47.909Z,1033
2016-12-07T02:02:52.007Z,1033.1
2016-12-07T02:07:56.426Z,1033
2016-12-07T02:13:00.839Z,1032.9
2016-12-07T02:18:05.253Z,1032.7
2016-12-07T02:23:09.335Z,1032.6
2016-12-07T02:28:13.751Z,1032.5
2016-12-07T02:33:17.835Z,1032.4
2016-12-07T02:38:21.911Z,1032.4
2016-12-07T02:43:26.663Z,1032.3
2016-12-07T02:48:30.748Z,1032.2
2016-12-07T02:53:34.832Z,1032.2
2016-12-07T02:58:38.921Z,1032.2
2016-12-07T03:03:44.006Z,1032.1
2016-12-07T03:08:48.086Z,1032
2016-12-07T03:13:52.504Z,1031.9
2016-12-07T03:18:56.598Z,1031.8
2016-12-07T03:24:00.680Z,1031.8
2016-12-07T03:29:05.094Z,1031.8
2016-12-07T03:34:09.176Z,1031.7
2016-12-07T03:39:13.260Z,1031.7
2016-12-07T03:44:17.340Z,1031.8
2016-12-07T03:49:21.422Z,1031.7
2016-12-07T03:54:25.502Z,1031.6
2016-12-07T03:59:29.586Z,1031.5
2016-12-07T04:04:33.676Z,1031.4
2016-12-07T04:09:37.765Z,1031.3
2016-12-07T04:14:42.179Z,1031.3
2016-12-07T04:19:46.269Z,1031.4
2016-12-07T04:24:50.364Z,1031.4
2016-12-07T04:29:54.798Z,1031.3
2016-12-07T04:34:59.228Z,1031.3
2016-12-07T04:40:03.313Z,1031.2
2016-12-07T04:45:07.728Z,1031.2
2016-12-07T04:50:11.807Z,1031.1
2016-12-07T04:55:16.235Z,1031.2
2016-12-07T05:00:20.321Z,1031.2
2016-12-07T05:05:24.738Z,1031.2
2016-12-07T05:10:28.823Z,1031.1
2016-12-07T05:15:33.469Z,1031
2016-12-07T05:20:38.219Z,1031
2016-12-07T05:25:42.308Z,1030.9
2016-12-07T05:30:46.724Z,1031
2016-12-07T05:35:51.174Z,1030.9
2016-12-07T05:40:55.592Z,1031
2016-12-07T05:46:00.221Z,1030.8
2016-12-07T05:51:04.970Z,1030.8
2016-12-07T05:56:09.074Z,1030.8
2016-12-07T06:01:13.155Z,1030.8
2016-12-07T06:06:17.235Z,1030.8
2016-12-07T06:11:21.661Z,1030.6
2016-12-07T06:16:25.753Z,1030.6
2016-12-07T06:21:29.839Z,1030.5
2016-12-07T06:26:33.920Z,1030.4
2016-12-07T06:31:38.711Z,1030.4
2016-12-07T06:36:42.796Z,1030.4
2016-12-07T06:41:47.222Z,1030.3
2016-12-07T06:46:51.308Z,1030.2
2016-12-07T06:51:55.733Z,1030.2
2016-12-07T06:56:59.814Z,1030.2
2016-12-07T07:02:03.899Z,1030.1
2016-12-07T07:07:08.654Z,1030.1
2016-12-07T07:12:12.736Z,1030.1
2016-12-07T07:17:16.819Z,1030
2016-12-07T07:22:21.239Z,1030
2016-12-07T07:27:25.321Z,1029.8
2016-12-07T07:32:29.742Z,1029.8
2016-12-07T07:37:34.165Z,1029.7
2016-12-07T07:42:38.257Z,1029.7
2016-12-07T07:47:42.341Z,1029.7
2016-12-07T07:52:46.422Z,1029.6
2016-12-07T07:57:50.843Z,1029.7
2016-12-07T08:02:54.929Z,1029.6
2016-12-07T08:07:59.354Z,1029.7
2016-12-07T08:13:03.777Z,1029.7
2016-12-07T08:18:08.525Z,1029.6
2016-12-07T08:23:12.942Z,1029.6
2016-12-07T08:28:17.032Z,1029.8
2016-12-07T08:33:21.452Z,1029.7
2016-12-07T08:38:25.869Z,1029.8
2016-12-07T08:43:30.290Z,1029.6
2016-12-07T08:48:34.376Z,1029.6
2016-12-07T08:53:38.461Z,1029.7
2016-12-07T08:58:42.558Z,1029.7
2016-12-07T09:03:46.644Z,1029.7
2016-12-07T09:08:51.064Z,1029.7
2016-12-07T09:13:55.484Z,1029.7
2016-12-07T09:18:59.902Z,1029.7
2016-12-07T09:24:03.991Z,1029.7
2016-12-07T09:29:08.744Z,1029.6
2016-12-07T09:34:13.504Z,1029.7
2016-12-07T09:39:17.586Z,1029.5
2016-12-07T09:44:21.672Z,1029.4
2016-12-07T09:49:25.757Z,1029.4
2016-12-07T09:54:30.841Z,1029.5
2016-12-07T09:59:34.933Z,1029.4
2016-12-07T10:04:39.030Z,1029.4
2016-12-07T10:09:43.456Z,1029.2
2016-12-07T10:14:47.881Z,1029.1
2016-12-07T10:19:52.646Z,1029
2016-12-07T10:24:57.062Z,1029
2016-12-07T10:30:01.499Z,1029
2016-12-07T10:35:05.587Z,1028.9
2016-12-07T10:40:09.677Z,1028.8
2016-12-07T10:45:14.097Z,1028.7
2016-12-07T10:50:18.181Z,1028.8
2016-12-07T10:55:22.261Z,1028.8
2016-12-07T11:00:26.350Z,1028.6
2016-12-07T11:05:30.777Z,1028.6
2016-12-07T11:10:35.192Z,1028.5
2016-12-07T11:15:39.279Z,1028.6
2016-12-07T11:20:43.368Z,1028.5
2016-12-07T11:25:47.448Z,1028.4
2016-12-07T11:30:51.539Z,1028.3
2016-12-07T11:35:55.631Z,1028.2
2016-12-07T11:40:59.814Z,1028
2016-12-07T11:46:03.907Z,1027.9
2016-12-07T11:51:07.998Z,1027.7
2016-12-07T11:56:12.419Z,1027.7
2016-12-07T12:01:16.506Z,1027.6
2016-12-07T12:06:20.605Z,1027.5
2016-12-07T12:11:24.695Z,1027.5
2016-12-07T12:16:29.118Z,1027.4
2016-12-07T12:21:33.195Z,1027.4
2016-12-07T12:26:37.290Z,1027.4
2016-12-07T12:31:41.714Z,1027.3
2016-12-07T12:36:45.794Z,1027.2
2016-12-07T12:41:50.214Z,1027.4
2016-12-07T12:46:54.682Z,1027.2
2016-12-07T12:51:59.114Z,1027.2
2016-12-07T12:57:03.892Z,1027.1
2016-12-07T13:02:08.311Z,1026.9
2016-12-07T13:07:12.395Z,1027
2016-12-07T13:12:16.505Z,1026.9
2016-12-07T13:17:20.829Z,1027
2016-12-07T13:22:25.364Z,1026.9
2016-12-07T13:27:29.504Z,1026.8
2016-12-07T13:32:33.628Z,1026.8
2016-12-07T13:37:37.713Z,1026.8
2016-12-07T13:42:42.098Z,1026.8
2016-12-07T13:47:46.267Z,1026.8
2016-12-07T13:52:50.345Z,1026.8
2016-12-07T13:57:54.771Z,1026.8
2016-12-07T14:02:58.853Z,1026.7
2016-12-07T14:08:03.274Z,1026.7
2016-12-07T14:13:08.032Z,1026.7
2016-12-07T14:18:12.106Z,1026.6
2016-12-07T14:23:16.224Z,1026.6
2016-12-07T14:28:20.785Z,1026.6
2016-12-07T14:33:24.921Z,1026.6
2016-12-07T14:38:29.378Z,1026.7
2016-12-07T14:43:33.466Z,1026.7
2016-12-07T14:48:38.222Z,1026.7
2016-12-07T14:53:42.725Z,1026.6
2016-12-07T14:58:46.810Z,1026.6
2016-12-07T15:03:50.894Z,1026.6
2016-12-07T15:08:54.983Z,1026.5
2016-12-07T15:13:59.073Z,1026.5
2016-12-07T15:19:03.313Z,1026.4
2016-12-07T15:24:07.423Z,1026.3
2016-12-07T15:29:11.846Z,1026.3
2016-12-07T15:34:16.274Z,1026.3
2016-12-07T15:39:20.396Z,1026.3
2016-12-07T15:44:24.478Z,1026.1
2016-12-07T15:49:28.566Z,1026.2
2016-12-07T15:54:32.652Z,1026.1
2016-12-07T15:59:37.124Z,1026.1
2016-12-07T16:04:41.556Z,1026.1
2016-12-07T16:09:46.656Z,1026.2
2016-12-07T16:14:50.739Z,1026.3
2016-12-07T16:19:55.155Z,1026.2
2016-12-07T16:24:59.235Z,1026.2
2016-12-07T16:30:03.660Z,1026.2
2016-12-07T16:35:07.774Z,1026.1
2016-12-07T16:40:12.538Z,1026.2
2016-12-07T16:45:16.982Z,1026.2
2016-12-07T16:50:21.395Z,1026.1
2016-12-07T16:55:25.480Z,1026.2
2016-12-07T17:00:29.562Z,1026.1
2016-12-07T17:05:33.649Z,1026
2016-12-07T17:10:37.734Z,1025.9
2016-12-07T17:15:42.493Z,1025.9
2016-12-07T17:20:47.250Z,1026
2016-12-07T17:25:51.667Z,1026.1
2016-12-07T17:30:55.757Z,1026.1
2016-12-07T17:36:00.173Z,1026.2
2016-12-07T17:41:04.256Z,1026.3
2016-12-07T17:46:08.340Z,1026.2
2016-12-07T17:51:12.756Z,1026.2
2016-12-07T17:56:16.845Z,1026.2
2016-12-07T18:01:20.922Z,1026.1
2016-12-07T18:06:25.676Z,1026.1
2016-12-07T18:11:29.764Z,1026.1
2016-12-07T18:16:34.524Z,1026.2
2016-12-07T18:21:38.614Z,1026
2016-12-07T18:26:42.695Z,1026
2016-12-07T18:31:47.460Z,1026
2016-12-07T18:36:51.562Z,1026
2016-12-07T18:41:55.974Z,1026
2016-12-07T18:47:01.067Z,1026
2016-12-07T18:52:05.149Z,1026
2016-12-07T18:57:09.223Z,1026
2016-12-07T19:02:13.988Z,1026.1
2016-12-07T19:07:18.702Z,1026.1
2016-12-07T19:12:22.781Z,1026
2016-12-07T19:17:27.201Z,1025.9
2016-12-07T19:22:31.625Z,1025.8
2016-12-07T19:27:36.394Z,1025.8
2016-12-07T19:32:40.478Z,1025.7
2016-12-07T19:37:44.585Z,1025.7
2016-12-07T19:42:49.002Z,1025.8
2016-12-07T19:47:53.083Z,1025.7
2016-12-07T19:52:57.166Z,1025.6
2016-12-07T19:58:01.264Z,1025.6
2016-12-07T20:03:05.349Z,1025.6
2016-12-07T20:08:09.767Z,1025.6
2016-12-07T20:13:14.192Z,1025.7
2016-12-07T20:18:18.615Z,1025.7
2016-12-07T20:23:22.697Z,1025.7
2016-12-07T20:28:27.116Z,1025.7
2016-12-07T20:33:31.213Z,1025.6
2016-12-07T20:38:35.315Z,1025.5
2016-12-07T20:43:40.091Z,1025.4
2016-12-07T20:48:44.173Z,1025.3
2016-12-07T20:53:48.257Z,1025.3
2016-12-07T20:58:52.691Z,1025.3
2016-12-07T21:03:56.800Z,1025.2
2016-12-07T21:09:00.887Z,1025.3
2016-12-07T21:14:04.979Z,1025.2
2016-12-07T21:19:09.402Z,1025.2
2016-12-07T21:24:13.497Z,1025.2
2016-12-07T21:29:17.581Z,1025.2
2016-12-07T21:34:22.015Z,1025.2
2016-12-07T21:39:26.774Z,1025.2
2016-12-07T21:44:30.942Z,1025.3
2016-12-07T21:49:35.357Z,1025.3
2016-12-07T21:54:39.456Z,1025.2
2016-12-07T21:59:43.541Z,1025.2
2016-12-07T22:04:47.955Z,1025.3
2016-12-07T22:09:52.045Z,1025.3
2016-12-07T22:14:56.479Z,1025.4
2016-12-07T22:20:00.907Z,1025.4
2016-12-07T22:25:05.017Z,1025.4
2016-12-07T22:30:09.428Z,1025.4
2016-12-07T22:35:14.192Z,1025.4
2016-12-07T22:40:18.279Z,1025.6
2016-12-07T22:45:22.364Z,1025.5
2016-12-07T22:50:26.788Z,1025.5
2016-12-07T22:55:30.882Z,1025.5
2016-12-07T23:00:35.687Z,1025.5
2016-12-07T23:05:39.770Z,1025.4
2016-12-07T23:10:43.855Z,1025.4
2016-12-07T23:15:47.951Z,1025.5
2016-12-07T23:20:52.031Z,1025.3
2016-12-07T23:25:56.454Z,1025.4
2016-12-07T23:31:00.545Z,1025.3
2016-12-07T23:36:04.638Z,1025.2
2016-12-07T23:41:09.049Z,1025.2
2016-12-07T23:46:13.476Z,1025.2
2016-12-07T23:51:17.894Z,1025.1
2016-12-07T23:56:22.312Z,1025
